sensor_id;sensor_type;location;lat;lon;timestamp;temperature;humidity
3923;DHT22;1976;51.694;6.256;2023-01-05T00:00:54;11.80;99.90
3923;DHT22;1976;51.694;6.256;2023-01-05T00:03:20;11.80;99.90
3923;DHT22;1976;51.694;6.256;2023-01-05T00:05:46;11.80;99.90
3923;DHT22;1976;51.694;6.256;2023-01-05T00:08:12;11.80;99.90
3923;DHT22;1976;51.694;6.256;2023-01-05T00:10:38;11.80;99.90
3923;DHT22;1976;51.694;6.256;2023-01-05T00:13:22;11.90;99.90
3923;DHT22;1976;51.694;6.256;2023-01-05T00:16:11;11.80;99.90
3923;DHT22;1976;51.694;6.256;2023-01-05T00:18:56;11.80;99.90
3923;DHT22;1976;51.694;6.256;2023-01-05T00:21:40;11.80;99.90
3923;DHT22;1976;51.694;6.256;2023-01-05T00:24:40;11.70;99.90
3923;DHT22;1976;51.694;6.256;2023-01-05T00:27:06;11.70;99.90
3923;DHT22;1976;51.694;6.256;2023-01-05T00:29:32;9.20;99.90
3923;DHT22;1976;51.694;6.256;2023-01-05T00:31:57;11.60;99.90
3923;DHT22;1976;51.694;6.256;2023-01-05T00:34:23;11.60;99.90
3923;DHT22;1976;51.694;6.256;2023-01-05T00:36:48;11.60;99.90
3923;DHT22;1976;51.694;6.256;2023-01-05T00:39:14;11.60;99.90
3923;DHT22;1976;51.694;6.256;2023-01-05T00:41:40;11.70;99.90
3923;DHT22;1976;51.694;6.256;2023-01-05T00:44:05;11.70;99.90
3923;DHT22;1976;51.694;6.256;2023-01-05T00:46:31;11.70;99.90
3923;DHT22;1976;51.694;6.256;2023-01-05T00:48:56;11.70;99.90
3923;DHT22;1976;51.694;6.256;2023-01-05T00:51:22;11.70;99.90
3923;DHT22;1976;51.694;6.256;2023-01-05T00:53:48;11.80;99.90
3923;DHT22;1976;51.694;6.256;2023-01-05T00:56:14;11.80;99.90
3923;DHT22;1976;51.694;6.256;2023-01-05T00:58:40;11.80;99.90
3923;DHT22;1976;51.694;6.256;2023-01-05T01:01:10;11.90;99.90
3923;DHT22;1976;51.694;6.256;2023-01-05T01:03:36;11.80;99.90
3923;DHT22;1976;51.694;6.256;2023-01-05T01:06:01;11.80;99.90
3923;DHT22;1976;51.694;6.256;2023-01-05T01:08:27;11.80;99.90
3923;DHT22;1976;51.694;6.256;2023-01-05T01:10:53;11.80;99.90
3923;DHT22;1976;51.694;6.256;2023-01-05T01:13:18;11.80;99.90
3923;DHT22;1976;51.694;6.256;2023-01-05T01:15:44;11.80;99.90
3923;DHT22;1976;51.694;6.256;2023-01-05T01:18:09;11.80;99.90
3923;DHT22;1976;51.694;6.256;2023-01-05T01:20:36;11.80;99.90
3923;DHT22;1976;51.694;6.256;2023-01-05T01:23:02;11.80;99.90
3923;DHT22;1976;51.694;6.256;2023-01-05T01:25:29;11.80;99.90
3923;DHT22;1976;51.694;6.256;2023-01-05T01:27:55;11.80;99.90
3923;DHT22;1976;51.694;6.256;2023-01-05T01:30:21;11.90;99.90
3923;DHT22;1976;51.694;6.256;2023-01-05T01:32:46;11.80;99.90
3923;DHT22;1976;51.694;6.256;2023-01-05T01:35:12;11.70;99.90
3923;DHT22;1976;51.694;6.256;2023-01-05T01:37:38;11.70;99.90
3923;DHT22;1976;51.694;6.256;2023-01-05T01:40:05;11.70;99.90
3923;DHT22;1976;51.694;6.256;2023-01-05T01:42:32;11.70;99.90
3923;DHT22;1976;51.694;6.256;2023-01-05T01:45:00;11.60;99.90
3923;DHT22;1976;51.694;6.256;2023-01-05T01:50:23;11.60;99.90
3923;DHT22;1976;51.694;6.256;2023-01-05T01:52:53;11.60;99.90
3923;DHT22;1976;51.694;6.256;2023-01-05T01:55:19;11.70;99.90
3923;DHT22;1976;51.694;6.256;2023-01-05T01:57:46;11.70;99.90
3923;DHT22;1976;51.694;6.256;2023-01-05T02:00:13;11.70;99.90
3923;DHT22;1976;51.694;6.256;2023-01-05T02:02:39;11.70;99.90
3923;DHT22;1976;51.694;6.256;2023-01-05T02:05:09;11.70;99.90
3923;DHT22;1976;51.694;6.256;2023-01-05T02:07:38;11.70;99.90
3923;DHT22;1976;51.694;6.256;2023-01-05T02:10:05;11.70;99.90
3923;DHT22;1976;51.694;6.256;2023-01-05T02:12:38;11.70;99.90
3923;DHT22;1976;51.694;6.256;2023-01-05T02:15:48;11.60;99.90
3923;DHT22;1976;51.694;6.256;2023-01-05T02:21:32;11.60;99.90
3923;DHT22;1976;51.694;6.256;2023-01-05T02:24:25;11.60;99.90
3923;DHT22;1976;51.694;6.256;2023-01-05T02:32:33;11.60;99.90
3923;DHT22;1976;51.694;6.256;2023-01-05T02:35:22;11.60;99.90
3923;DHT22;1976;51.694;6.256;2023-01-05T02:38:05;11.60;99.90
3923;DHT22;1976;51.694;6.256;2023-01-05T02:40:38;11.60;99.90
3923;DHT22;1976;51.694;6.256;2023-01-05T02:43:08;11.60;99.90
3923;DHT22;1976;51.694;6.256;2023-01-05T02:45:34;11.60;99.90
3923;DHT22;1976;51.694;6.256;2023-01-05T02:47:59;11.50;99.90
3923;DHT22;1976;51.694;6.256;2023-01-05T02:50:30;11.40;99.90
3923;DHT22;1976;51.694;6.256;2023-01-05T02:53:08;11.50;99.90
3923;DHT22;1976;51.694;6.256;2023-01-05T02:58:07;11.50;99.90
3923;DHT22;1976;51.694;6.256;2023-01-05T03:00:48;11.50;99.90
3923;DHT22;1976;51.694;6.256;2023-01-05T03:03:20;11.50;99.90
3923;DHT22;1976;51.694;6.256;2023-01-05T03:08:23;11.50;99.90
3923;DHT22;1976;51.694;6.256;2023-01-05T03:11:04;11.50;99.90
3923;DHT22;1976;51.694;6.256;2023-01-05T03:13:54;11.50;99.90
3923;DHT22;1976;51.694;6.256;2023-01-05T03:16:25;11.50;99.90
3923;DHT22;1976;51.694;6.256;2023-01-05T03:18:53;11.50;99.90
3923;DHT22;1976;51.694;6.256;2023-01-05T03:21:39;11.50;99.90
3923;DHT22;1976;51.694;6.256;2023-01-05T03:24:23;11.50;99.90
3923;DHT22;1976;51.694;6.256;2023-01-05T03:27:07;11.50;99.90
3923;DHT22;1976;51.694;6.256;2023-01-05T03:29:53;11.50;99.90
3923;DHT22;1976;51.694;6.256;2023-01-05T03:32:45;11.60;99.90
3923;DHT22;1976;51.694;6.256;2023-01-05T03:35:33;11.60;99.90
3923;DHT22;1976;51.694;6.256;2023-01-05T03:38:22;11.60;99.90
3923;DHT22;1976;51.694;6.256;2023-01-05T03:40:51;11.60;99.90
3923;DHT22;1976;51.694;6.256;2023-01-05T03:43:18;11.60;99.90
3923;DHT22;1976;51.694;6.256;2023-01-05T03:45:53;11.60;99.90
3923;DHT22;1976;51.694;6.256;2023-01-05T03:48:21;11.60;99.90
3923;DHT22;1976;51.694;6.256;2023-01-05T03:50:47;11.50;99.90
3923;DHT22;1976;51.694;6.256;2023-01-05T03:53:13;11.50;99.90
3923;DHT22;1976;51.694;6.256;2023-01-05T03:55:38;11.50;99.90
3923;DHT22;1976;51.694;6.256;2023-01-05T03:58:04;11.50;99.90
3923;DHT22;1976;51.694;6.256;2023-01-05T04:00:30;11.50;99.90
3923;DHT22;1976;51.694;6.256;2023-01-05T04:02:56;11.60;99.90
3923;DHT22;1976;51.694;6.256;2023-01-05T04:05:21;11.50;99.90
3923;DHT22;1976;51.694;6.256;2023-01-05T04:07:47;11.60;99.90
3923;DHT22;1976;51.694;6.256;2023-01-05T04:10:13;11.60;99.90
3923;DHT22;1976;51.694;6.256;2023-01-05T04:12:38;11.60;99.90
3923;DHT22;1976;51.694;6.256;2023-01-05T04:15:05;11.60;99.90
3923;DHT22;1976;51.694;6.256;2023-01-05T04:17:30;11.60;99.90
3923;DHT22;1976;51.694;6.256;2023-01-05T04:19:56;11.60;99.90
3923;DHT22;1976;51.694;6.256;2023-01-05T04:22:22;11.70;99.90
3923;DHT22;1976;51.694;6.256;2023-01-05T04:24:47;11.70;99.90
3923;DHT22;1976;51.694;6.256;2023-01-05T04:27:13;11.70;99.90
3923;DHT22;1976;51.694;6.256;2023-01-05T04:29:39;11.60;99.90
3923;DHT22;1976;51.694;6.256;2023-01-05T04:32:04;11.60;99.90
3923;DHT22;1976;51.694;6.256;2023-01-05T04:34:30;11.60;99.90
3923;DHT22;1976;51.694;6.256;2023-01-05T04:36:56;11.60;99.90
3923;DHT22;1976;51.694;6.256;2023-01-05T04:39:21;11.50;99.90
3923;DHT22;1976;51.694;6.256;2023-01-05T04:41:47;11.40;99.90
3923;DHT22;1976;51.694;6.256;2023-01-05T04:44:13;11.30;99.90
3923;DHT22;1976;51.694;6.256;2023-01-05T04:46:39;11.20;99.90
3923;DHT22;1976;51.694;6.256;2023-01-05T04:49:05;11.20;99.90
3923;DHT22;1976;51.694;6.256;2023-01-05T04:51:30;11.10;99.90
3923;DHT22;1976;51.694;6.256;2023-01-05T04:53:56;11.00;99.90
3923;DHT22;1976;51.694;6.256;2023-01-05T04:56:22;11.00;99.90
3923;DHT22;1976;51.694;6.256;2023-01-05T04:58:48;11.00;99.90
3923;DHT22;1976;51.694;6.256;2023-01-05T05:01:13;11.00;99.90
3923;DHT22;1976;51.694;6.256;2023-01-05T05:03:39;11.00;99.90
3923;DHT22;1976;51.694;6.256;2023-01-05T05:06:05;10.90;99.90
3923;DHT22;1976;51.694;6.256;2023-01-05T05:08:31;10.90;99.90
3923;DHT22;1976;51.694;6.256;2023-01-05T05:10:56;10.90;99.90
3923;DHT22;1976;51.694;6.256;2023-01-05T05:13:22;10.90;99.90
3923;DHT22;1976;51.694;6.256;2023-01-05T05:15:48;10.90;99.90
3923;DHT22;1976;51.694;6.256;2023-01-05T05:18:13;10.90;99.90
3923;DHT22;1976;51.694;6.256;2023-01-05T05:20:41;11.00;99.90
3923;DHT22;1976;51.694;6.256;2023-01-05T05:23:07;11.00;99.90
3923;DHT22;1976;51.694;6.256;2023-01-05T05:25:32;11.00;99.90
3923;DHT22;1976;51.694;6.256;2023-01-05T05:27:58;11.00;99.90
3923;DHT22;1976;51.694;6.256;2023-01-05T05:30:24;11.00;99.90
3923;DHT22;1976;51.694;6.256;2023-01-05T05:32:49;11.10;99.90
3923;DHT22;1976;51.694;6.256;2023-01-05T05:35:15;11.10;99.90
3923;DHT22;1976;51.694;6.256;2023-01-05T05:37:41;11.10;99.90
3923;DHT22;1976;51.694;6.256;2023-01-05T05:40:07;11.20;99.90
3923;DHT22;1976;51.694;6.256;2023-01-05T05:42:33;11.20;99.90
3923;DHT22;1976;51.694;6.256;2023-01-05T05:44:58;11.20;99.90
3923;DHT22;1976;51.694;6.256;2023-01-05T05:47:24;11.20;99.90
3923;DHT22;1976;51.694;6.256;2023-01-05T05:49:49;11.30;99.90
3923;DHT22;1976;51.694;6.256;2023-01-05T05:52:15;11.40;99.90
3923;DHT22;1976;51.694;6.256;2023-01-05T05:54:41;11.40;99.90
3923;DHT22;1976;51.694;6.256;2023-01-05T05:57:06;11.40;99.90
3923;DHT22;1976;51.694;6.256;2023-01-05T05:59:32;11.50;99.90
3923;DHT22;1976;51.694;6.256;2023-01-05T06:01:57;11.50;99.90
3923;DHT22;1976;51.694;6.256;2023-01-05T06:04:23;11.50;99.90
3923;DHT22;1976;51.694;6.256;2023-01-05T06:06:49;11.60;99.90
3923;DHT22;1976;51.694;6.256;2023-01-05T06:09:14;11.60;99.90
3923;DHT22;1976;51.694;6.256;2023-01-05T06:11:40;11.60;99.90
3923;DHT22;1976;51.694;6.256;2023-01-05T06:14:05;11.70;99.90
3923;DHT22;1976;51.694;6.256;2023-01-05T06:16:32;11.70;99.90
3923;DHT22;1976;51.694;6.256;2023-01-05T06:18:57;11.80;99.90
3923;DHT22;1976;51.694;6.256;2023-01-05T06:21:23;11.80;99.90
3923;DHT22;1976;51.694;6.256;2023-01-05T06:23:48;11.70;99.90
3923;DHT22;1976;51.694;6.256;2023-01-05T06:26:14;11.70;99.90
3923;DHT22;1976;51.694;6.256;2023-01-05T06:28:40;11.60;99.90
3923;DHT22;1976;51.694;6.256;2023-01-05T06:31:05;11.70;99.90
3923;DHT22;1976;51.694;6.256;2023-01-05T06:33:31;11.70;99.90
3923;DHT22;1976;51.694;6.256;2023-01-05T06:35:57;11.70;99.90
3923;DHT22;1976;51.694;6.256;2023-01-05T06:38:23;11.70;99.90
3923;DHT22;1976;51.694;6.256;2023-01-05T06:40:49;11.70;99.90
3923;DHT22;1976;51.694;6.256;2023-01-05T06:43:15;11.70;99.90
3923;DHT22;1976;51.694;6.256;2023-01-05T06:45:40;11.70;99.90
3923;DHT22;1976;51.694;6.256;2023-01-05T06:48:06;11.60;99.90
3923;DHT22;1976;51.694;6.256;2023-01-05T06:50:32;11.60;99.90
3923;DHT22;1976;51.694;6.256;2023-01-05T06:52:58;11.70;99.90
3923;DHT22;1976;51.694;6.256;2023-01-05T06:55:24;11.70;99.90
3923;DHT22;1976;51.694;6.256;2023-01-05T06:57:50;11.60;99.90
3923;DHT22;1976;51.694;6.256;2023-01-05T07:00:16;11.50;99.90
3923;DHT22;1976;51.694;6.256;2023-01-05T07:02:41;11.50;99.90
3923;DHT22;1976;51.694;6.256;2023-01-05T07:05:07;11.50;99.90
3923;DHT22;1976;51.694;6.256;2023-01-05T07:07:33;11.50;99.90
3923;DHT22;1976;51.694;6.256;2023-01-05T07:09:59;11.60;99.90
3923;DHT22;1976;51.694;6.256;2023-01-05T07:12:25;11.60;99.90
3923;DHT22;1976;51.694;6.256;2023-01-05T07:14:51;11.60;99.90
3923;DHT22;1976;51.694;6.256;2023-01-05T07:17:16;11.60;99.90
3923;DHT22;1976;51.694;6.256;2023-01-05T07:19:42;11.60;99.90
3923;DHT22;1976;51.694;6.256;2023-01-05T07:22:08;11.60;99.90
3923;DHT22;1976;51.694;6.256;2023-01-05T07:24:33;11.60;99.90
3923;DHT22;1976;51.694;6.256;2023-01-05T07:26:59;11.60;99.90
3923;DHT22;1976;51.694;6.256;2023-01-05T07:29:25;11.70;99.90
3923;DHT22;1976;51.694;6.256;2023-01-05T07:31:51;11.70;99.90
3923;DHT22;1976;51.694;6.256;2023-01-05T07:34:21;11.70;99.90
3923;DHT22;1976;51.694;6.256;2023-01-05T07:36:47;11.70;99.90
3923;DHT22;1976;51.694;6.256;2023-01-05T07:39:13;11.60;99.90
3923;DHT22;1976;51.694;6.256;2023-01-05T07:41:39;11.60;99.90
3923;DHT22;1976;51.694;6.256;2023-01-05T07:44:05;11.60;99.90
3923;DHT22;1976;51.694;6.256;2023-01-05T07:46:30;11.60;99.90
3923;DHT22;1976;51.694;6.256;2023-01-05T07:48:56;11.60;99.90
3923;DHT22;1976;51.694;6.256;2023-01-05T07:51:22;11.60;99.90
3923;DHT22;1976;51.694;6.256;2023-01-05T07:53:48;11.60;99.90
3923;DHT22;1976;51.694;6.256;2023-01-05T07:56:14;11.60;99.90
3923;DHT22;1976;51.694;6.256;2023-01-05T07:58:41;11.60;99.90
3923;DHT22;1976;51.694;6.256;2023-01-05T08:01:09;11.60;99.90
3923;DHT22;1976;51.694;6.256;2023-01-05T08:03:35;11.60;99.90
3923;DHT22;1976;51.694;6.256;2023-01-05T08:06:12;11.60;99.90
3923;DHT22;1976;51.694;6.256;2023-01-05T08:08:38;11.60;99.90
3923;DHT22;1976;51.694;6.256;2023-01-05T08:11:09;11.60;99.90
3923;DHT22;1976;51.694;6.256;2023-01-05T08:13:35;11.60;99.90
3923;DHT22;1976;51.694;6.256;2023-01-05T08:16:20;11.60;99.90
3923;DHT22;1976;51.694;6.256;2023-01-05T08:18:46;11.70;99.90
3923;DHT22;1976;51.694;6.256;2023-01-05T08:21:12;11.60;99.90
3923;DHT22;1976;51.694;6.256;2023-01-05T08:23:38;11.60;99.90
3923;DHT22;1976;51.694;6.256;2023-01-05T08:26:15;11.70;99.90
3923;DHT22;1976;51.694;6.256;2023-01-05T08:28:41;11.70;99.90
3923;DHT22;1976;51.694;6.256;2023-01-05T08:31:11;11.70;99.90
3923;DHT22;1976;51.694;6.256;2023-01-05T08:33:37;11.70;99.90
3923;DHT22;1976;51.694;6.256;2023-01-05T08:36:23;11.70;99.90
3923;DHT22;1976;51.694;6.256;2023-01-05T08:38:52;11.60;99.90
3923;DHT22;1976;51.694;6.256;2023-01-05T08:41:22;11.70;99.90
3923;DHT22;1976;51.694;6.256;2023-01-05T08:43:53;11.60;99.90
3923;DHT22;1976;51.694;6.256;2023-01-05T08:46:21;11.60;99.90
3923;DHT22;1976;51.694;6.256;2023-01-05T08:48:48;11.60;99.90
3923;DHT22;1976;51.694;6.256;2023-01-05T08:51:14;11.70;99.90
3923;DHT22;1976;51.694;6.256;2023-01-05T08:53:39;11.70;99.90
3923;DHT22;1976;51.694;6.256;2023-01-05T08:56:05;11.80;99.90
3923;DHT22;1976;51.694;6.256;2023-01-05T08:58:31;11.70;99.90
3923;DHT22;1976;51.694;6.256;2023-01-05T09:00:57;11.70;99.90
3923;DHT22;1976;51.694;6.256;2023-01-05T09:03:23;11.70;99.90
3923;DHT22;1976;51.694;6.256;2023-01-05T09:05:52;11.70;99.90
3923;DHT22;1976;51.694;6.256;2023-01-05T09:08:18;11.80;99.90
3923;DHT22;1976;51.694;6.256;2023-01-05T09:10:43;11.80;99.90
3923;DHT22;1976;51.694;6.256;2023-01-05T09:13:09;11.80;99.90
3923;DHT22;1976;51.694;6.256;2023-01-05T09:15:35;11.80;99.90
3923;DHT22;1976;51.694;6.256;2023-01-05T09:18:00;11.80;99.90
3923;DHT22;1976;51.694;6.256;2023-01-05T09:20:26;11.80;99.90
3923;DHT22;1976;51.694;6.256;2023-01-05T09:22:52;11.80;99.90
3923;DHT22;1976;51.694;6.256;2023-01-05T09:25:17;11.80;99.90
3923;DHT22;1976;51.694;6.256;2023-01-05T09:27:43;11.80;99.90
3923;DHT22;1976;51.694;6.256;2023-01-05T09:30:09;11.90;99.90
3923;DHT22;1976;51.694;6.256;2023-01-05T09:32:36;11.90;99.90
3923;DHT22;1976;51.694;6.256;2023-01-05T09:35:02;11.90;99.90
3923;DHT22;1976;51.694;6.256;2023-01-05T09:37:27;11.90;99.90
3923;DHT22;1976;51.694;6.256;2023-01-05T09:39:53;11.90;99.90
3923;DHT22;1976;51.694;6.256;2023-01-05T09:42:22;11.90;99.90
3923;DHT22;1976;51.694;6.256;2023-01-05T09:44:54;11.90;99.90
3923;DHT22;1976;51.694;6.256;2023-01-05T09:47:57;11.90;99.90
3923;DHT22;1976;51.694;6.256;2023-01-05T09:50:26;12.00;99.90
3923;DHT22;1976;51.694;6.256;2023-01-05T09:52:56;12.00;99.90
3923;DHT22;1976;51.694;6.256;2023-01-05T09:55:26;12.00;99.90
3923;DHT22;1976;51.694;6.256;2023-01-05T09:57:56;11.90;99.90
3923;DHT22;1976;51.694;6.256;2023-01-05T10:00:24;12.00;99.90
3923;DHT22;1976;51.694;6.256;2023-01-05T10:03:02;12.00;99.90
3923;DHT22;1976;51.694;6.256;2023-01-05T10:05:31;12.00;99.90
3923;DHT22;1976;51.694;6.256;2023-01-05T10:08:07;12.00;99.90
3923;DHT22;1976;51.694;6.256;2023-01-05T10:11:02;12.00;99.90
3923;DHT22;1976;51.694;6.256;2023-01-05T10:14:01;12.10;99.90
3923;DHT22;1976;51.694;6.256;2023-01-05T10:16:29;12.20;99.90
3923;DHT22;1976;51.694;6.256;2023-01-05T10:18:55;12.20;99.90
3923;DHT22;1976;51.694;6.256;2023-01-05T10:21:58;12.20;99.90
3923;DHT22;1976;51.694;6.256;2023-01-05T10:24:54;12.20;99.90
3923;DHT22;1976;51.694;6.256;2023-01-05T10:27:51;12.20;99.90
3923;DHT22;1976;51.694;6.256;2023-01-05T10:30:21;12.30;99.90
3923;DHT22;1976;51.694;6.256;2023-01-05T10:33:13;12.30;99.90
3923;DHT22;1976;51.694;6.256;2023-01-05T10:35:55;12.30;99.90
3923;DHT22;1976;51.694;6.256;2023-01-05T10:38:32;12.40;99.90
3923;DHT22;1976;51.694;6.256;2023-01-05T10:43:49;12.50;99.90
3923;DHT22;1976;51.694;6.256;2023-01-05T10:46:19;12.60;99.90
3923;DHT22;1976;51.694;6.256;2023-01-05T10:48:46;12.60;99.90
3923;DHT22;1976;51.694;6.256;2023-01-05T10:51:11;12.60;99.90
3923;DHT22;1976;51.694;6.256;2023-01-05T10:53:40;12.60;99.90
3923;DHT22;1976;51.694;6.256;2023-01-05T10:56:22;12.60;99.90
3923;DHT22;1976;51.694;6.256;2023-01-05T10:58:48;12.50;99.90
3923;DHT22;1976;51.694;6.256;2023-01-05T11:01:25;12.60;99.90
3923;DHT22;1976;51.694;6.256;2023-01-05T11:04:16;12.60;99.90
3923;DHT22;1976;51.694;6.256;2023-01-05T11:06:42;12.60;99.90
3923;DHT22;1976;51.694;6.256;2023-01-05T11:09:18;12.60;99.90
3923;DHT22;1976;51.694;6.256;2023-01-05T11:11:56;12.60;99.90
3923;DHT22;1976;51.694;6.256;2023-01-05T11:14:23;12.60;99.90
3923;DHT22;1976;51.694;6.256;2023-01-05T11:16:51;12.60;99.90
3923;DHT22;1976;51.694;6.256;2023-01-05T11:19:22;12.60;99.90
3923;DHT22;1976;51.694;6.256;2023-01-05T11:21:49;12.60;99.90
3923;DHT22;1976;51.694;6.256;2023-01-05T11:26:51;12.70;99.90
3923;DHT22;1976;51.694;6.256;2023-01-05T11:29:17;12.80;99.90
3923;DHT22;1976;51.694;6.256;2023-01-05T11:31:52;12.90;99.90
3923;DHT22;1976;51.694;6.256;2023-01-05T11:37:01;13.00;99.90
3923;DHT22;1976;51.694;6.256;2023-01-05T11:39:31;12.90;99.90
3923;DHT22;1976;51.694;6.256;2023-01-05T11:44:59;12.90;99.90
3923;DHT22;1976;51.694;6.256;2023-01-05T11:50:25;12.90;99.90
3923;DHT22;1976;51.694;6.256;2023-01-05T11:52:55;13.10;99.90
3923;DHT22;1976;51.694;6.256;2023-01-05T12:06:36;13.70;99.90
3923;DHT22;1976;51.694;6.256;2023-01-05T12:20:54;13.70;99.90
3923;DHT22;1976;51.694;6.256;2023-01-05T12:23:26;13.70;99.90
3923;DHT22;1976;51.694;6.256;2023-01-05T12:50:31;14.40;99.90
3923;DHT22;1976;51.694;6.256;2023-01-05T12:53:07;14.30;99.90
3923;DHT22;1976;51.694;6.256;2023-01-05T12:55:48;14.40;99.90
3923;DHT22;1976;51.694;6.256;2023-01-05T13:00:56;14.40;99.90
3923;DHT22;1976;51.694;6.256;2023-01-05T13:03:28;14.40;99.90
3923;DHT22;1976;51.694;6.256;2023-01-05T13:06:10;14.60;99.90
3923;DHT22;1976;51.694;6.256;2023-01-05T13:11:21;15.20;99.90
3923;DHT22;1976;51.694;6.256;2023-01-05T13:14:40;15.00;99.90
3923;DHT22;1976;51.694;6.256;2023-01-05T13:16:58;14.60;99.90
3923;DHT22;1976;51.694;6.256;2023-01-05T13:19:47;14.40;99.90
3923;DHT22;1976;51.694;6.256;2023-01-05T13:22:23;14.30;99.90
3923;DHT22;1976;51.694;6.256;2023-01-05T13:24:52;14.30;99.90
3923;DHT22;1976;51.694;6.256;2023-01-05T13:27:19;14.30;99.90
3923;DHT22;1976;51.694;6.256;2023-01-05T13:29:49;14.10;99.90
3923;DHT22;1976;51.694;6.256;2023-01-05T13:35:02;13.80;99.90
3923;DHT22;1976;51.694;6.256;2023-01-05T13:51:51;13.40;99.90
3923;DHT22;1976;51.694;6.256;2023-01-05T13:55:02;13.20;99.90
3923;DHT22;1976;51.694;6.256;2023-01-05T13:57:17;13.10;99.90
3923;DHT22;1976;51.694;6.256;2023-01-05T13:59:48;13.10;99.90
3923;DHT22;1976;51.694;6.256;2023-01-05T14:02:34;13.00;99.90
3923;DHT22;1976;51.694;6.256;2023-01-05T14:05:06;12.90;99.90
3923;DHT22;1976;51.694;6.256;2023-01-05T14:07:39;12.90;99.90
3923;DHT22;1976;51.694;6.256;2023-01-05T14:10:22;12.90;99.90
3923;DHT22;1976;51.694;6.256;2023-01-05T14:12:49;13.00;99.90
3923;DHT22;1976;51.694;6.256;2023-01-05T14:15:30;13.10;99.90
3923;DHT22;1976;51.694;6.256;2023-01-05T14:17:58;13.00;99.90
3923;DHT22;1976;51.694;6.256;2023-01-05T14:23:04;13.10;99.90
3923;DHT22;1976;51.694;6.256;2023-01-05T14:39:02;12.90;99.90
3923;DHT22;1976;51.694;6.256;2023-01-05T14:41:30;12.90;99.90
3923;DHT22;1976;51.694;6.256;2023-01-05T14:43:57;12.80;99.90
3923;DHT22;1976;51.694;6.256;2023-01-05T14:46:26;12.80;99.90
3923;DHT22;1976;51.694;6.256;2023-01-05T14:49:02;12.70;99.90
3923;DHT22;1976;51.694;6.256;2023-01-05T14:51:30;12.60;99.90
3923;DHT22;1976;51.694;6.256;2023-01-05T14:54:01;12.60;99.90
3923;DHT22;1976;51.694;6.256;2023-01-05T14:56:32;12.60;99.90
3923;DHT22;1976;51.694;6.256;2023-01-05T14:59:04;12.60;99.90
3923;DHT22;1976;51.694;6.256;2023-01-05T15:01:42;12.60;99.90
3923;DHT22;1976;51.694;6.256;2023-01-05T15:04:26;12.60;99.90
3923;DHT22;1976;51.694;6.256;2023-01-05T15:30:17;12.00;99.90
3923;DHT22;1976;51.694;6.256;2023-01-05T15:32:50;11.80;99.90
3923;DHT22;1976;51.694;6.256;2023-01-05T15:35:28;11.60;99.90
3923;DHT22;1976;51.694;6.256;2023-01-05T15:38:40;11.40;99.90
3923;DHT22;1976;51.694;6.256;2023-01-05T15:41:09;11.30;99.90
3923;DHT22;1976;51.694;6.256;2023-01-05T15:43:37;11.30;99.90
3923;DHT22;1976;51.694;6.256;2023-01-05T15:46:03;11.40;99.90
3923;DHT22;1976;51.694;6.256;2023-01-05T15:48:36;11.50;99.90
3923;DHT22;1976;51.694;6.256;2023-01-05T15:51:04;11.50;99.90
3923;DHT22;1976;51.694;6.256;2023-01-05T15:53:38;11.50;99.90
3923;DHT22;1976;51.694;6.256;2023-01-05T15:56:22;11.50;99.90
3923;DHT22;1976;51.694;6.256;2023-01-05T15:58:48;11.50;99.90
3923;DHT22;1976;51.694;6.256;2023-01-05T16:01:15;11.40;99.90
3923;DHT22;1976;51.694;6.256;2023-01-05T16:03:45;11.30;99.90
3923;DHT22;1976;51.694;6.256;2023-01-05T16:06:23;11.10;99.90
3923;DHT22;1976;51.694;6.256;2023-01-05T16:08:52;10.90;99.90
3923;DHT22;1976;51.694;6.256;2023-01-05T16:11:24;10.80;99.90
3923;DHT22;1976;51.694;6.256;2023-01-05T16:14:00;10.70;99.90
3923;DHT22;1976;51.694;6.256;2023-01-05T16:16:46;10.60;99.90
3923;DHT22;1976;51.694;6.256;2023-01-05T16:19:33;10.60;99.90
3923;DHT22;1976;51.694;6.256;2023-01-05T16:22:05;10.60;99.90
3923;DHT22;1976;51.694;6.256;2023-01-05T16:27:05;10.50;99.90
3923;DHT22;1976;51.694;6.256;2023-01-05T16:29:39;10.50;99.90
3923;DHT22;1976;51.694;6.256;2023-01-05T16:32:26;10.50;99.90
3923;DHT22;1976;51.694;6.256;2023-01-05T16:37:43;10.60;99.90
3923;DHT22;1976;51.694;6.256;2023-01-05T16:40:20;10.60;99.90
3923;DHT22;1976;51.694;6.256;2023-01-05T16:42:48;10.60;99.90
3923;DHT22;1976;51.694;6.256;2023-01-05T16:47:45;10.60;99.90
3923;DHT22;1976;51.694;6.256;2023-01-05T16:53:13;10.60;99.90
3923;DHT22;1976;51.694;6.256;2023-01-05T16:55:40;10.70;99.90
3923;DHT22;1976;51.694;6.256;2023-01-05T17:00:52;10.80;99.90
3923;DHT22;1976;51.694;6.256;2023-01-05T17:03:30;10.80;99.90
3923;DHT22;1976;51.694;6.256;2023-01-05T17:05:57;10.80;99.90
3923;DHT22;1976;51.694;6.256;2023-01-05T17:08:25;10.80;99.90
3923;DHT22;1976;51.694;6.256;2023-01-05T17:10:54;10.70;99.90
3923;DHT22;1976;51.694;6.256;2023-01-05T17:13:23;10.60;99.90
3923;DHT22;1976;51.694;6.256;2023-01-05T17:15:51;10.60;99.90
3923;DHT22;1976;51.694;6.256;2023-01-05T17:18:18;10.50;99.90
3923;DHT22;1976;51.694;6.256;2023-01-05T17:20:46;10.40;99.90
3923;DHT22;1976;51.694;6.256;2023-01-05T17:23:27;10.40;99.90
3923;DHT22;1976;51.694;6.256;2023-01-05T17:25:59;10.30;99.90
3923;DHT22;1976;51.694;6.256;2023-01-05T17:28:26;10.30;99.90
3923;DHT22;1976;51.694;6.256;2023-01-05T17:30:52;10.30;99.90
3923;DHT22;1976;51.694;6.256;2023-01-05T17:33:18;10.30;99.90
3923;DHT22;1976;51.694;6.256;2023-01-05T17:35:45;10.30;99.90
3923;DHT22;1976;51.694;6.256;2023-01-05T17:38:12;10.20;99.90
3923;DHT22;1976;51.694;6.256;2023-01-05T17:40:38;10.20;99.90
3923;DHT22;1976;51.694;6.256;2023-01-05T17:43:04;10.20;99.90
3923;DHT22;1976;51.694;6.256;2023-01-05T17:45:30;10.20;99.90
3923;DHT22;1976;51.694;6.256;2023-01-05T17:47:56;10.20;99.90
3923;DHT22;1976;51.694;6.256;2023-01-05T17:50:26;10.20;99.90
3923;DHT22;1976;51.694;6.256;2023-01-05T17:52:53;10.20;99.90
3923;DHT22;1976;51.694;6.256;2023-01-05T17:55:20;10.20;99.90
3923;DHT22;1976;51.694;6.256;2023-01-05T17:57:47;10.20;99.90
3923;DHT22;1976;51.694;6.256;2023-01-05T18:00:16;10.20;99.90
3923;DHT22;1976;51.694;6.256;2023-01-05T18:02:41;10.20;99.90
3923;DHT22;1976;51.694;6.256;2023-01-05T18:05:08;10.10;99.90
3923;DHT22;1976;51.694;6.256;2023-01-05T18:07:35;10.10;99.90
3923;DHT22;1976;51.694;6.256;2023-01-05T18:10:01;10.20;99.90
3923;DHT22;1976;51.694;6.256;2023-01-05T18:12:27;10.20;99.90
3923;DHT22;1976;51.694;6.256;2023-01-05T18:14:53;10.20;99.90
3923;DHT22;1976;51.694;6.256;2023-01-05T18:17:19;10.20;99.90
3923;DHT22;1976;51.694;6.256;2023-01-05T18:19:45;10.20;99.90
3923;DHT22;1976;51.694;6.256;2023-01-05T18:22:11;10.20;99.90
3923;DHT22;1976;51.694;6.256;2023-01-05T18:24:38;10.20;99.90
3923;DHT22;1976;51.694;6.256;2023-01-05T18:27:04;10.30;99.90
3923;DHT22;1976;51.694;6.256;2023-01-05T18:29:33;10.30;99.90
3923;DHT22;1976;51.694;6.256;2023-01-05T18:31:58;10.40;99.90
3923;DHT22;1976;51.694;6.256;2023-01-05T18:34:26;10.40;99.90
3923;DHT22;1976;51.694;6.256;2023-01-05T18:36:51;10.50;99.90
3923;DHT22;1976;51.694;6.256;2023-01-05T18:39:17;10.50;99.90
3923;DHT22;1976;51.694;6.256;2023-01-05T18:41:43;10.40;99.90
3923;DHT22;1976;51.694;6.256;2023-01-05T18:44:08;10.50;99.90
3923;DHT22;1976;51.694;6.256;2023-01-05T18:46:34;10.50;99.90
3923;DHT22;1976;51.694;6.256;2023-01-05T18:49:00;10.50;99.90
3923;DHT22;1976;51.694;6.256;2023-01-05T18:51:26;10.50;99.90
3923;DHT22;1976;51.694;6.256;2023-01-05T18:53:52;10.50;99.90